createdAt,value
2018-09-17T00:00:23.228Z,13.00
2018-09-17T00:02:26.955Z,12.80
2018-09-17T00:04:32.796Z,12.50
2018-09-17T00:06:41.432Z,12.40
2018-09-17T00:08:45.183Z,12.20
2018-09-17T00:10:48.989Z,12.10
2018-09-17T00:12:52.847Z,12.10
2018-09-17T00:15:00.195Z,12.80
2018-09-17T00:17:11.910Z,13.30
2018-09-17T00:19:26.981Z,13.80
2018-09-17T00:21:33.787Z,13.50
2018-09-17T00:23:43.415Z,13.20
2018-09-17T00:25:47.276Z,12.90
2018-09-17T00:27:56.357Z,12.60
2018-09-17T00:30:02.529Z,12.50
2018-09-17T00:32:12.059Z,12.30
2018-09-17T00:34:20.130Z,12.10
2018-09-17T00:36:28.883Z,11.90
2018-09-17T00:38:32.713Z,11.80
2018-09-17T00:40:36.521Z,12.40
2018-09-17T00:42:40.272Z,13.00
2018-09-17T00:44:44.075Z,13.50
2018-09-17T00:46:47.916Z,13.40
2018-09-17T00:48:51.727Z,13.10
2018-09-17T00:50:59.431Z,12.70
2018-09-17T00:53:06.206Z,12.40
2018-09-17T00:55:09.992Z,12.10
2018-09-17T00:57:13.964Z,11.90
2018-09-17T00:59:17.779Z,11.80
2018-09-17T01:01:25.179Z,11.70
2018-09-17T01:03:29.002Z,11.60
2018-09-17T01:05:40.629Z,11.70
2018-09-17T01:07:44.474Z,12.50
2018-09-17T01:09:55.526Z,13.10
2018-09-17T01:12:04.795Z,13.30
2018-09-17T01:14:11.911Z,13.00
2018-09-17T01:16:18.487Z,12.60
2018-09-17T01:18:25.490Z,12.40
2018-09-17T01:20:29.394Z,12.10
2018-09-17T01:22:33.164Z,11.90
2018-09-17T01:24:36.942Z,11.70
2018-09-17T01:26:40.707Z,11.60
2018-09-17T01:28:44.451Z,11.40
2018-09-17T01:30:53.401Z,11.30
2018-09-17T01:33:00.199Z,11.40
2018-09-17T01:35:04.119Z,12.10
2018-09-17T01:37:10.812Z,12.70
2018-09-17T01:39:23.881Z,13.00
2018-09-17T01:41:32.517Z,12.70
2018-09-17T01:43:39.868Z,12.30
2018-09-17T01:45:49.926Z,12.00
2018-09-17T01:47:54.067Z,11.80
2018-09-17T01:50:02.454Z,11.60
2018-09-17T01:52:06.286Z,11.40
2018-09-17T01:54:10.036Z,11.20
2018-09-17T01:56:18.373Z,11.10
2018-09-17T01:58:23.133Z,11.00
2018-09-17T02:00:26.920Z,11.20
2018-09-17T02:02:30.823Z,11.90
2018-09-17T02:04:34.583Z,12.60
2018-09-17T02:06:38.384Z,12.90
2018-09-17T02:08:42.166Z,12.60
2018-09-17T02:10:45.957Z,12.30
2018-09-17T02:12:49.741Z,12.00
2018-09-17T02:14:53.557Z,11.80
2018-09-17T02:16:57.317Z,11.60
2018-09-17T02:19:06.998Z,11.40
2018-09-17T02:21:11.352Z,11.30
2018-09-17T02:23:15.112Z,11.20
2018-09-17T02:25:31.021Z,11.10
2018-09-17T02:27:34.864Z,11.00
2018-09-17T02:29:38.701Z,11.70
2018-09-17T02:31:42.514Z,12.30
2018-09-17T02:33:46.276Z,12.80
2018-09-17T02:35:50.108Z,12.70
2018-09-17T02:37:53.917Z,12.40
2018-09-17T02:39:57.796Z,12.10
2018-09-17T02:42:01.626Z,11.90
2018-09-17T02:44:05.363Z,11.60
2018-09-17T02:46:09.821Z,11.50
2018-09-17T02:48:13.564Z,11.40
2018-09-17T02:50:17.343Z,11.20
2018-09-17T02:52:21.087Z,11.10
2018-09-17T02:54:32.449Z,11.00
2018-09-17T02:56:36.346Z,11.20
2018-09-17T02:58:40.188Z,11.90
2018-09-17T03:00:45.446Z,12.50
2018-09-17T03:02:53.523Z,12.80
2018-09-17T03:04:57.286Z,12.70
2018-09-17T03:07:01.845Z,12.30
2018-09-17T03:09:15.674Z,12.00
2018-09-17T03:11:19.480Z,11.80
2018-09-17T03:13:23.289Z,11.50
2018-09-17T03:15:38.279Z,11.30
2018-09-17T03:17:45.692Z,11.20
2018-09-17T03:19:49.481Z,11.10
2018-09-17T03:21:56.866Z,11.00
2018-09-17T03:24:01.446Z,10.90
2018-09-17T03:26:05.368Z,11.40
2018-09-17T03:28:14.090Z,12.10
2018-09-17T03:30:23.717Z,12.60
2018-09-17T03:32:27.508Z,12.60
2018-09-17T03:34:33.452Z,12.30
2018-09-17T03:36:38.026Z,12.00
2018-09-17T03:38:44.780Z,11.70
2018-09-17T03:40:48.682Z,11.50
2018-09-17T03:42:52.447Z,11.30
2018-09-17T03:44:56.847Z,11.30
2018-09-17T03:47:01.453Z,11.20
2018-09-17T03:49:05.829Z,11.10
2018-09-17T03:51:10.423Z,11.00
2018-09-17T03:53:14.230Z,11.00
2018-09-17T03:55:21.390Z,11.70
2018-09-17T03:57:25.886Z,12.40
2018-09-17T03:59:30.077Z,12.80
2018-09-17T04:01:42.338Z,12.50
2018-09-17T04:04:01.863Z,12.20
2018-09-17T04:06:05.710Z,12.00
2018-09-17T04:08:09.621Z,11.80
2018-09-17T04:10:13.468Z,11.60
2018-09-17T04:12:17.228Z,11.40
2018-09-17T04:14:21.217Z,11.30
2018-09-17T04:16:25.258Z,11.10
2018-09-17T04:18:30.049Z,11.10
2018-09-17T04:20:33.814Z,10.90
2018-09-17T04:22:38.049Z,11.20
2018-09-17T04:24:42.056Z,11.90
2018-09-17T04:26:46.669Z,12.50
2018-09-17T04:28:53.680Z,12.60
2018-09-17T04:31:07.378Z,12.40
2018-09-17T04:33:11.454Z,12.00
2018-09-17T04:35:15.143Z,11.80
2018-09-17T04:37:27.682Z,11.60
2018-09-17T04:41:51.547Z,11.20
2018-09-17T04:43:55.565Z,11.10
2018-09-17T04:45:59.638Z,11.00
2018-09-17T04:48:04.992Z,10.90
2018-09-17T04:50:09.966Z,10.80
2018-09-17T04:52:34.606Z,11.40
2018-09-17T04:54:54.884Z,12.10
2018-09-17T04:56:58.720Z,12.60
2018-09-17T04:59:02.566Z,12.30
2018-09-17T05:01:06.433Z,12.10
2018-09-17T05:03:10.428Z,11.80
2018-09-17T05:05:14.353Z,11.50
2018-09-17T05:07:20.766Z,11.40
2018-09-17T05:09:24.456Z,11.30
2018-09-17T05:11:28.478Z,11.10
2018-09-17T05:13:34.847Z,11.00
2018-09-17T05:15:38.656Z,10.90
2018-09-17T05:17:46.245Z,10.90
2018-09-17T05:20:11.821Z,11.40
2018-09-17T05:22:18.191Z,12.00
2018-09-17T05:24:27.748Z,12.60
2018-09-17T05:26:35.372Z,12.60
2018-09-17T05:28:39.232Z,12.30
2018-09-17T05:30:42.993Z,12.00
2018-09-17T05:32:46.737Z,11.80
2018-09-17T05:34:51.643Z,11.60
2018-09-17T05:36:55.441Z,11.50
2018-09-17T05:38:59.270Z,11.40
2018-09-17T05:41:12.499Z,11.30
2018-09-17T05:43:16.360Z,11.20
2018-09-17T05:45:20.197Z,11.30
2018-09-17T05:47:29.829Z,11.30
2018-09-17T05:49:34.146Z,12.10
2018-09-17T05:51:38.149Z,12.80
2018-09-17T05:53:41.939Z,13.30
2018-09-17T05:55:45.744Z,13.30
2018-09-17T05:57:49.519Z,13.10
2018-09-17T05:59:53.382Z,12.90
2018-09-17T06:01:57.168Z,12.90
2018-09-17T06:04:01.038Z,12.70
2018-09-17T06:06:07.102Z,12.50
2018-09-17T06:08:10.903Z,12.50
2018-09-17T06:10:16.785Z,12.60
2018-09-17T06:12:20.851Z,12.60
2018-09-17T06:14:24.661Z,12.70
2018-09-17T06:16:29.090Z,12.90
2018-09-17T06:18:35.042Z,13.70
2018-09-17T06:20:38.762Z,14.50
2018-09-17T06:22:42.501Z,15.00
2018-09-17T06:24:46.353Z,15.00
2018-09-17T06:26:50.105Z,15.10
2018-09-17T06:28:54.005Z,15.10
2018-09-17T06:30:57.851Z,14.80
2018-09-17T06:33:01.593Z,14.70
2018-09-17T06:35:05.443Z,15.40
2018-09-17T06:37:10.210Z,17.10
2018-09-17T06:39:14.121Z,18.20
2018-09-17T06:41:17.887Z,19.40
2018-09-17T06:43:21.650Z,20.60
2018-09-17T06:45:25.876Z,21.80
2018-09-17T06:47:29.726Z,22.50
2018-09-17T06:49:33.487Z,23.20
2018-09-17T06:51:46.789Z,23.30
2018-09-17T06:53:51.484Z,23.30
2018-09-17T06:55:55.284Z,23.70
2018-09-17T06:57:59.031Z,23.30
2018-09-17T07:00:02.898Z,23.70
2018-09-17T07:02:07.004Z,24.00
2018-09-17T07:04:10.898Z,24.30
2018-09-17T07:06:14.787Z,24.50
2018-09-17T07:08:18.594Z,25.60
2018-09-17T07:10:22.490Z,26.40
2018-09-17T07:12:26.283Z,26.90
2018-09-17T07:14:30.129Z,27.50
2018-09-17T07:16:34.146Z,28.10
2018-09-17T07:18:39.111Z,28.50
2018-09-17T07:20:43.526Z,29.00
2018-09-17T07:22:47.382Z,29.40
2018-09-17T07:24:51.250Z,28.80
2018-09-17T07:26:55.070Z,28.70
2018-09-17T07:28:59.386Z,29.30
2018-09-17T07:31:03.230Z,29.40
2018-09-17T07:33:07.056Z,30.10
2018-09-17T07:35:10.860Z,30.50
2018-09-17T07:37:14.631Z,30.20
2018-09-17T07:39:18.474Z,29.70
2018-09-17T07:41:22.252Z,28.60
2018-09-17T07:43:26.087Z,27.40
2018-09-17T07:45:30.026Z,26.10
2018-09-17T07:47:34.796Z,25.90
2018-09-17T07:49:38.635Z,26.00
2018-09-17T07:51:42.436Z,26.00
2018-09-17T07:53:46.355Z,26.20
2018-09-17T07:55:50.169Z,26.80
2018-09-17T07:57:53.950Z,26.80
2018-09-17T07:59:57.805Z,26.10
2018-09-17T08:02:01.648Z,25.70
2018-09-17T08:04:05.437Z,24.90
2018-09-17T08:06:09.426Z,24.60
2018-09-17T08:08:13.236Z,24.30
2018-09-17T08:10:23.905Z,24.00
2018-09-17T08:12:38.136Z,24.50
2018-09-17T08:14:41.898Z,25.10
2018-09-17T08:16:45.737Z,25.40
2018-09-17T08:18:49.458Z,25.30
2018-09-17T08:20:53.364Z,25.40
2018-09-17T08:22:58.369Z,25.30
2018-09-17T08:25:02.245Z,25.20
2018-09-17T08:27:06.253Z,24.50
2018-09-17T08:29:19.687Z,24.40
2018-09-17T08:31:23.591Z,24.30
2018-09-17T08:33:27.480Z,25.00
2018-09-17T08:35:32.368Z,25.60
2018-09-17T08:37:36.163Z,26.00
2018-09-17T08:39:39.926Z,26.30
2018-09-17T08:41:43.888Z,25.70
2018-09-17T08:46:06.605Z,25.10
2018-09-17T08:48:10.360Z,24.90
2018-09-17T08:50:14.211Z,24.40
2018-09-17T08:52:18.230Z,24.10
2018-09-17T08:54:21.978Z,24.60
2018-09-17T08:56:31.928Z,25.60
2018-09-17T08:58:41.062Z,26.20
2018-09-17T09:00:50.052Z,26.50
2018-09-17T09:03:00.590Z,26.20
2018-09-17T09:05:10.976Z,25.90
2018-09-17T09:07:20.040Z,25.40
2018-09-17T09:09:28.648Z,24.80
2018-09-17T09:11:42.637Z,24.40
2018-09-17T09:14:02.676Z,24.30
2018-09-17T09:16:06.883Z,25.20
2018-09-17T09:18:10.956Z,25.90
2018-09-17T09:20:14.798Z,26.30
2018-09-17T09:22:22.419Z,26.60
2018-09-17T09:24:29.470Z,26.30
2018-09-17T09:26:41.612Z,26.30
2018-09-17T09:28:45.704Z,25.90
2018-09-17T09:30:49.600Z,26.00
2018-09-17T09:32:53.516Z,25.70
2018-09-17T09:34:57.261Z,25.60
2018-09-17T09:37:01.084Z,26.00
2018-09-17T09:39:07.807Z,26.40
2018-09-17T09:41:11.616Z,26.70
2018-09-17T09:43:15.370Z,27.00
2018-09-17T09:45:19.124Z,27.10
2018-09-17T09:47:22.860Z,26.80
2018-09-17T09:49:26.618Z,26.60
2018-09-17T09:51:31.536Z,26.50
2018-09-17T09:53:35.315Z,26.30
2018-09-17T09:55:39.086Z,26.20
2018-09-17T09:57:42.874Z,26.80
2018-09-17T09:59:46.649Z,26.90
2018-09-17T10:01:58.557Z,27.50
2018-09-17T10:04:07.963Z,27.80
2018-09-17T10:06:13.018Z,27.60
2018-09-17T10:08:21.503Z,27.30
2018-09-17T10:10:31.287Z,27.00
2018-09-17T10:15:01.723Z,26.90
2018-09-17T10:17:16.778Z,26.80
2018-09-17T10:19:23.251Z,27.00
2018-09-17T10:21:27.288Z,27.50
2018-09-17T10:23:31.170Z,27.70
2018-09-17T10:25:34.996Z,27.50
2018-09-17T10:27:38.838Z,27.40
2018-09-17T10:29:42.731Z,27.20
2018-09-17T10:31:48.062Z,26.50
2018-09-17T10:33:58.788Z,26.00
2018-09-17T10:36:02.617Z,25.70
2018-09-17T10:38:07.246Z,25.50
2018-09-17T10:40:11.201Z,26.10
2018-09-17T10:42:15.030Z,26.50
2018-09-17T10:44:18.869Z,26.90
2018-09-17T10:46:22.687Z,26.80
2018-09-17T10:48:27.086Z,27.00
2018-09-17T10:50:31.079Z,26.50
2018-09-17T10:52:34.958Z,26.10
2018-09-17T10:54:38.744Z,25.60
2018-09-17T10:56:43.335Z,25.40
2018-09-17T10:58:47.162Z,25.50
2018-09-17T11:00:50.977Z,26.30
2018-09-17T11:03:01.644Z,27.10
2018-09-17T11:05:06.551Z,27.50
2018-09-17T11:07:12.711Z,27.90
2018-09-17T11:09:16.695Z,28.10
2018-09-17T11:11:26.227Z,27.60
2018-09-17T11:13:33.752Z,26.70
2018-09-17T11:15:50.955Z,26.50
2018-09-17T11:17:54.899Z,26.40
2018-09-17T11:19:58.696Z,26.20
2018-09-17T11:22:02.537Z,26.40
2018-09-17T11:24:06.494Z,27.40
2018-09-17T11:26:11.595Z,27.90
2018-09-17T11:28:15.794Z,28.20
2018-09-17T11:30:26.644Z,28.40
2018-09-17T11:32:30.395Z,27.50
2018-09-17T11:34:34.244Z,27.60
2018-09-17T11:36:38.073Z,27.40
2018-09-17T11:38:41.912Z,27.30
2018-09-17T11:40:45.746Z,27.40
2018-09-17T11:42:49.608Z,27.70
2018-09-17T11:44:53.553Z,28.00
2018-09-17T11:46:57.272Z,28.30
2018-09-17T11:49:01.648Z,28.60
2018-09-17T11:51:05.461Z,29.00
2018-09-17T11:53:09.348Z,28.60
2018-09-17T11:55:13.229Z,28.10
2018-09-17T11:57:17.007Z,28.10
2018-09-17T11:59:21.344Z,27.90
2018-09-17T12:01:32.297Z,27.70
2018-09-17T12:03:41.338Z,27.30
2018-09-17T12:05:51.365Z,27.70
2018-09-17T12:07:55.138Z,28.60
2018-09-17T12:09:59.210Z,29.00
2018-09-17T12:12:03.083Z,29.50
2018-09-17T12:14:06.959Z,29.90
2018-09-17T12:16:11.155Z,30.20
2018-09-17T12:18:15.997Z,29.70
2018-09-17T12:20:20.062Z,28.10
2018-09-17T12:22:23.812Z,27.60
2018-09-17T12:24:27.828Z,27.60
2018-09-17T12:26:32.713Z,27.50
2018-09-17T12:28:36.506Z,27.90
2018-09-17T12:30:40.335Z,28.60
2018-09-17T12:32:44.199Z,28.80
2018-09-17T12:34:53.958Z,29.00
2018-09-17T12:36:57.861Z,29.30
2018-09-17T12:39:02.687Z,29.70
2018-09-17T12:41:11.631Z,29.50
2018-09-17T12:43:15.352Z,29.20
2018-09-17T12:45:19.490Z,28.20
2018-09-17T12:47:23.246Z,27.60
2018-09-17T12:49:27.034Z,27.60
2018-09-17T12:51:30.850Z,28.10
2018-09-17T12:53:34.762Z,29.00
2018-09-17T12:55:38.603Z,29.80
2018-09-17T12:57:42.521Z,30.00
2018-09-17T12:59:46.429Z,30.20
2018-09-17T13:01:50.236Z,29.90
2018-09-17T13:03:53.986Z,30.10
2018-09-17T13:06:00.362Z,29.60
2018-09-17T13:08:09.204Z,28.80
2018-09-17T13:10:13.082Z,28.30
2018-09-17T13:12:16.872Z,28.30
2018-09-17T13:16:59.516Z,28.60
2018-09-17T13:19:03.402Z,29.10
2018-09-17T13:21:07.382Z,29.30
2018-09-17T13:23:12.438Z,29.90
2018-09-17T13:25:16.945Z,30.20
2018-09-17T13:27:24.793Z,30.10
2018-09-17T13:29:28.583Z,30.10
2018-09-17T13:31:32.816Z,28.60
2018-09-17T13:33:36.534Z,28.10
2018-09-17T13:35:40.365Z,28.00
2018-09-17T13:37:44.176Z,27.80
2018-09-17T13:39:48.029Z,28.00
2018-09-17T13:41:52.933Z,28.60
2018-09-17T13:43:56.698Z,29.20
2018-09-17T13:46:01.719Z,29.80
2018-09-17T13:48:05.841Z,30.10
2018-09-17T13:50:10.677Z,30.20
2018-09-17T13:52:43.646Z,30.20
2018-09-17T13:54:48.515Z,29.40
2018-09-17T13:56:52.394Z,28.70
2018-09-17T13:58:56.198Z,28.10
2018-09-17T14:03:28.615Z,27.70
2018-09-17T14:05:32.411Z,28.00
2018-09-17T14:07:45.541Z,28.40
2018-09-17T14:09:49.433Z,28.70
2018-09-17T14:11:53.248Z,29.20
2018-09-17T14:13:57.143Z,29.30
2018-09-17T14:16:02.011Z,29.20
2018-09-17T14:18:05.890Z,29.20
2018-09-17T14:20:09.870Z,28.70
2018-09-17T14:22:13.651Z,28.10
2018-09-17T14:24:17.680Z,27.90
2018-09-17T14:26:21.563Z,27.60
2018-09-17T14:28:25.460Z,27.20
2018-09-17T14:30:29.284Z,27.60
2018-09-17T14:33:41.152Z,28.10
2018-09-17T14:35:54.710Z,28.50
2018-09-17T14:37:59.671Z,28.90
2018-09-17T14:40:03.739Z,29.00
2018-09-17T14:42:07.690Z,28.90
2018-09-17T14:44:22.384Z,28.50
2018-09-17T14:46:26.697Z,27.90
2018-09-17T14:48:31.044Z,27.30
2018-09-17T14:50:34.865Z,27.10
2018-09-17T14:52:39.510Z,26.90
2018-09-17T14:54:43.324Z,27.40
2018-09-17T14:56:47.319Z,27.90
2018-09-17T14:58:51.841Z,28.30
2018-09-17T15:01:01.339Z,28.60
2018-09-17T15:08:31.701Z,28.50
2018-09-17T15:10:35.776Z,27.70
2018-09-17T15:12:39.995Z,27.30
2018-09-17T15:14:44.124Z,26.80
2018-09-17T15:16:48.203Z,26.60
2018-09-17T15:18:52.211Z,27.10
2018-09-17T15:20:56.556Z,27.70
2018-09-17T15:23:00.581Z,28.10
2018-09-17T15:25:04.560Z,28.30
2018-09-17T15:27:08.683Z,28.40
2018-09-17T15:29:13.152Z,28.20
2018-09-17T15:31:17.270Z,28.00
2018-09-17T15:33:21.359Z,27.50
2018-09-17T15:35:25.495Z,26.90
2018-09-17T15:37:29.949Z,26.60
2018-09-17T15:39:34.230Z,26.30
2018-09-17T15:41:38.785Z,26.30
2018-09-17T15:43:42.916Z,26.80
2018-09-17T15:45:47.280Z,27.30
2018-09-17T15:47:51.754Z,27.60
2018-09-17T15:49:55.993Z,27.90
2018-09-17T15:52:00.084Z,28.00
2018-09-17T15:54:04.250Z,27.90
2018-09-17T15:56:08.401Z,27.40
2018-09-17T15:58:12.506Z,26.80
2018-09-17T16:00:17.836Z,26.30
2018-09-17T16:02:21.856Z,25.90
2018-09-17T16:04:26.319Z,25.70
2018-09-17T16:06:30.381Z,26.20
2018-09-17T16:08:34.583Z,26.70
2018-09-17T16:10:38.763Z,27.20
2018-09-17T16:12:42.764Z,27.40
2018-09-17T16:14:46.823Z,27.60
2018-09-17T16:16:50.789Z,27.60
2018-09-17T16:18:54.796Z,27.10
2018-09-17T16:20:58.909Z,26.50
2018-09-17T16:23:03.357Z,26.00
2018-09-17T16:25:07.487Z,25.70
2018-09-17T16:27:11.531Z,25.30
2018-09-17T16:29:15.777Z,25.70
2018-09-17T16:31:19.612Z,26.30
2018-09-17T16:33:23.712Z,26.60
2018-09-17T16:35:27.793Z,26.80
2018-09-17T16:37:32.097Z,27.10
2018-09-17T16:39:36.176Z,27.30
2018-09-17T16:41:40.360Z,26.70
2018-09-17T16:43:44.523Z,26.10
2018-09-17T16:45:48.501Z,25.50
2018-09-17T16:47:52.527Z,25.10
2018-09-17T16:49:56.640Z,24.80
2018-09-17T16:52:01.214Z,24.70
2018-09-17T16:54:05.999Z,25.40
2018-09-17T16:56:10.158Z,25.80
2018-09-17T16:58:14.872Z,26.10
2018-09-17T17:00:19.362Z,26.20
2018-09-17T17:02:23.559Z,26.10
2018-09-17T17:04:27.954Z,25.60
2018-09-17T17:06:36.156Z,25.10
2018-09-17T17:08:40.743Z,24.60
2018-09-17T17:10:45.042Z,24.20
2018-09-17T17:12:49.593Z,23.90
2018-09-17T17:14:53.689Z,24.00
2018-09-17T17:16:57.884Z,24.50
2018-09-17T17:19:02.581Z,24.80
2018-09-17T17:21:06.695Z,24.90
2018-09-17T17:23:11.838Z,25.10
2018-09-17T17:25:16.091Z,24.80
2018-09-17T17:27:22.191Z,24.20
2018-09-17T17:29:26.929Z,23.60
2018-09-17T17:31:30.738Z,23.00
2018-09-17T17:33:34.620Z,22.60
2018-09-17T17:35:39.306Z,22.20
2018-09-17T17:37:43.584Z,22.50
2018-09-17T17:39:47.990Z,22.80
2018-09-17T17:41:52.425Z,23.10
2018-09-17T17:43:56.407Z,23.30
2018-09-17T17:46:00.826Z,23.10
2018-09-17T17:48:05.474Z,22.70
2018-09-17T17:50:09.680Z,22.10
2018-09-17T17:52:14.382Z,21.60
2018-09-17T17:54:18.373Z,21.30
2018-09-17T17:56:22.455Z,20.90
2018-09-17T17:58:26.731Z,20.80
2018-09-17T18:00:31.427Z,21.20
2018-09-17T18:02:35.836Z,21.70
2018-09-17T18:04:39.919Z,21.90
2018-09-17T18:06:44.720Z,22.00
2018-09-17T18:08:48.703Z,21.60
2018-09-17T18:10:52.991Z,21.10
2018-09-17T18:12:57.637Z,20.70
2018-09-17T18:15:03.468Z,20.40
2018-09-17T18:17:08.018Z,20.00
2018-09-17T18:19:12.332Z,19.70
2018-09-17T18:21:16.776Z,20.10
2018-09-17T18:23:21.911Z,20.60
2018-09-17T18:25:26.280Z,21.10
2018-09-17T18:27:30.359Z,21.30
2018-09-17T18:29:34.608Z,20.90
2018-09-17T18:31:38.672Z,20.50
2018-09-17T18:33:42.907Z,19.90
2018-09-17T18:35:48.172Z,19.50
2018-09-17T18:37:52.486Z,19.30
2018-09-17T18:39:56.896Z,19.00
2018-09-17T18:42:01.386Z,19.00
2018-09-17T18:44:05.713Z,19.50
2018-09-17T18:46:10.192Z,20.00
2018-09-17T18:48:14.413Z,20.30
2018-09-17T18:50:18.625Z,20.20
2018-09-17T18:52:22.713Z,19.80
2018-09-17T18:54:26.928Z,19.40
2018-09-17T18:56:31.576Z,19.10
2018-09-17T18:58:36.088Z,18.60
2018-09-17T19:00:40.738Z,18.30
2018-09-17T19:02:45.007Z,18.10
2018-09-17T19:04:49.871Z,18.50
2018-09-17T19:06:54.157Z,19.20
2018-09-17T19:08:58.421Z,19.70
2018-09-17T19:11:03.315Z,19.70
2018-09-17T19:13:07.577Z,19.30
2018-09-17T19:15:17.477Z,18.80
2018-09-17T19:17:26.614Z,18.50
2018-09-17T19:19:30.774Z,18.10
2018-09-17T19:21:40.991Z,17.80
2018-09-17T19:23:50.493Z,17.60
2018-09-17T19:25:55.179Z,17.50
2018-09-17T19:28:04.640Z,18.20
2018-09-17T19:30:08.970Z,18.70
2018-09-17T19:32:13.549Z,19.10
2018-09-17T19:34:18.181Z,19.10
2018-09-17T19:36:22.565Z,18.60
2018-09-17T19:38:32.761Z,18.20
2018-09-17T19:40:37.025Z,17.80
2018-09-17T19:42:41.022Z,17.40
2018-09-17T19:44:49.525Z,17.10
2018-09-17T19:46:53.563Z,17.00
2018-09-17T19:48:59.566Z,17.10
2018-09-17T19:51:09.447Z,17.70
2018-09-17T19:53:13.743Z,18.30
2018-09-17T19:55:18.218Z,18.70
2018-09-17T19:57:27.890Z,18.40
2018-09-17T20:00:03.691Z,17.90
2018-09-17T20:02:10.983Z,17.50
2018-09-17T20:04:20.280Z,17.10
2018-09-17T20:06:27.512Z,16.80
2018-09-17T20:08:31.908Z,16.60
2018-09-17T20:10:36.126Z,16.40
2018-09-17T20:12:40.413Z,16.80
2018-09-17T20:14:44.553Z,17.40
2018-09-17T20:16:49.165Z,17.80
2018-09-17T20:18:54.819Z,17.90
2018-09-17T20:20:59.049Z,17.60
2018-09-17T20:23:03.921Z,17.10
2018-09-17T20:25:08.849Z,16.70
2018-09-17T20:27:13.354Z,16.40
2018-09-17T20:29:17.621Z,16.10
2018-09-17T20:31:22.012Z,15.90
2018-09-17T20:33:28.740Z,15.70
2018-09-17T20:35:33.212Z,16.00
2018-09-17T20:37:37.379Z,16.60
2018-09-17T20:39:41.430Z,17.10
2018-09-17T20:41:45.475Z,17.30
2018-09-17T20:43:49.509Z,17.00
2018-09-17T20:45:54.016Z,16.60
2018-09-17T20:47:58.515Z,16.30
2018-09-17T20:50:02.538Z,16.00
2018-09-17T20:52:06.955Z,15.70
2018-09-17T20:54:12.181Z,15.50
2018-09-17T20:56:16.277Z,15.30
2018-09-17T20:58:20.294Z,15.20
2018-09-17T21:00:24.392Z,15.90
2018-09-17T21:02:28.476Z,16.50
2018-09-17T21:04:32.716Z,16.90
2018-09-17T21:06:37.760Z,16.70
2018-09-17T21:08:42.377Z,16.40
2018-09-17T21:10:47.274Z,16.10
2018-09-17T21:12:51.691Z,15.70
2018-09-17T21:14:55.790Z,15.50
2018-09-17T21:17:00.644Z,15.30
2018-09-17T21:19:04.755Z,15.10
2018-09-17T21:21:08.699Z,14.90
2018-09-17T21:23:15.717Z,15.20
2018-09-17T21:25:20.833Z,15.80
2018-09-17T21:27:25.341Z,16.40
2018-09-17T21:29:30.356Z,16.60
2018-09-17T21:31:34.863Z,16.10
2018-09-17T21:33:38.845Z,15.80
2018-09-17T21:35:44.418Z,15.40
2018-09-17T21:37:48.839Z,15.00
2018-09-17T21:39:53.122Z,14.70
2018-09-17T21:41:57.292Z,14.50
2018-09-17T21:44:01.381Z,14.40
2018-09-17T21:46:05.609Z,14.30
2018-09-17T21:48:09.860Z,14.90
2018-09-17T21:50:13.906Z,15.60
2018-09-17T21:52:18.622Z,16.00
2018-09-17T21:54:27.516Z,16.00
2018-09-17T21:56:31.993Z,15.60
2018-09-17T21:58:35.916Z,15.30
2018-09-17T22:00:45.059Z,15.00
2018-09-17T22:02:48.828Z,14.70
2018-09-17T22:04:52.765Z,14.50
2018-09-17T22:06:56.856Z,14.30
2018-09-17T22:09:00.763Z,14.20
2018-09-17T22:11:04.800Z,14.20
2018-09-17T22:13:08.653Z,14.90
2018-09-17T22:15:12.415Z,15.40
2018-09-17T22:17:16.179Z,15.80
2018-09-17T22:19:19.984Z,15.60
2018-09-17T22:21:23.934Z,15.20
2018-09-17T22:23:27.737Z,14.90
2018-09-17T22:25:31.518Z,14.60
2018-09-17T22:27:35.281Z,14.40
2018-09-17T22:29:39.059Z,14.30
2018-09-17T22:31:42.905Z,14.10
2018-09-17T22:33:46.974Z,14.00
2018-09-17T22:35:50.724Z,14.00
2018-09-17T22:37:54.460Z,14.60
2018-09-17T22:39:58.248Z,15.30
2018-09-17T22:42:02.160Z,15.80
2018-09-17T22:44:05.945Z,15.80
2018-09-17T22:46:09.800Z,15.50
2018-09-17T22:48:13.599Z,15.10
2018-09-17T22:50:17.499Z,14.80
2018-09-17T22:52:21.276Z,14.50
2018-09-17T22:54:25.050Z,14.30
2018-09-17T22:56:28.865Z,14.10
2018-09-17T22:58:32.622Z,14.00
2018-09-17T23:00:36.488Z,13.90
2018-09-17T23:02:40.352Z,14.60
2018-09-17T23:04:44.161Z,15.20
2018-09-17T23:06:47.960Z,15.70
2018-09-17T23:08:52.046Z,15.70
2018-09-17T23:10:55.867Z,15.30
2018-09-17T23:12:59.752Z,15.00
2018-09-17T23:15:03.667Z,14.60
2018-09-17T23:17:07.491Z,14.40
2018-09-17T23:19:11.360Z,14.10
2018-09-17T23:21:15.172Z,14.00
2018-09-17T23:23:18.964Z,13.80
2018-09-17T23:25:22.712Z,13.70
2018-09-17T23:27:27.080Z,14.10
2018-09-17T23:29:31.166Z,14.80
2018-09-17T23:31:35.378Z,15.40
2018-09-17T23:33:39.401Z,15.80
2018-09-17T23:35:43.651Z,15.50
2018-09-17T23:37:47.959Z,15.10
2018-09-17T23:39:52.107Z,14.90
2018-09-17T23:41:56.216Z,14.60
2018-09-17T23:44:00.245Z,14.40
2018-09-17T23:46:04.366Z,14.30
2018-09-17T23:48:08.425Z,14.20
2018-09-17T23:50:12.559Z,14.00
2018-09-17T23:52:16.538Z,14.00
2018-09-17T23:54:20.943Z,14.70
2018-09-17T23:56:24.903Z,15.30
2018-09-17T23:58:28.895Z,15.90
